Time;durP1;ratioP1;P1;durP2;ratioP2;P2;SDS_P1;SDS_P2;PMS_P1;PMS_P2;Temp;Humidity;BMP_temperature;BMP_pressure;BME280_temperature;BME280_humidity;BME280_pressure;Samples;Min_cycle;Max_cycle;Signal;HPM_P1;HPM_P2
2023/04/18 00:01:48;;;;;;;4.00;2.60;;;21.10;36.60;;;;;;5049288;28;20096;-52
2023/04/18 00:04:16;;;;;;;3.33;2.42;;;21.10;36.50;;;;;;5050919;28;20021;-51
2023/04/18 00:06:42;;;;;;;3.97;2.67;;;21.10;36.30;;;;;;5047159;28;20365;-53
2023/04/18 00:09:08;;;;;;;2.88;2.40;;;21.10;36.20;;;;;;5045880;28;20032;-57
2023/04/18 00:11:34;;;;;;;3.10;2.50;;;21.10;36.10;;;;;;5047050;28;20029;-54
2023/04/18 00:14:00;;;;;;;3.58;2.70;;;21.10;36.00;;;;;;5045517;28;20029;-52
2023/04/18 00:16:27;;;;;;;3.63;2.50;;;21.10;35.90;;;;;;5050343;28;20082;-53
2023/04/18 00:18:53;;;;;;;4.72;2.75;;;21.10;35.80;;;;;;5044472;28;20055;-52
2023/04/18 00:21:18;;;;;;;2.80;2.42;;;21.10;35.70;;;;;;5046337;28;20033;-56
2023/04/18 00:23:45;;;;;;;3.92;2.78;;;21.10;35.70;;;;;;5044381;28;20502;-49
2023/04/18 00:26:11;;;;;;;3.00;2.42;;;21.10;35.60;;;;;;5047594;28;20036;-53
2023/04/18 00:28:37;;;;;;;2.70;2.10;;;21.10;35.50;;;;;;5047615;28;20107;-52
2023/04/18 00:31:03;;;;;;;3.70;2.60;;;21.10;35.50;;;;;;5047066;28;20588;-55
2023/04/18 00:33:30;;;;;;;3.70;2.50;;;21.10;35.40;;;;;;5046142;28;20029;-56
2023/04/18 00:35:56;;;;;;;5.25;2.72;;;21.10;35.30;;;;;;5043609;28;20398;-54
2023/04/18 00:38:22;;;;;;;3.03;2.20;;;21.10;35.30;;;;;;5048888;28;20509;-55
2023/04/18 00:40:48;;;;;;;3.33;2.40;;;21.10;35.20;;;;;;5048100;28;20029;-56
2023/04/18 00:43:14;;;;;;;2.95;2.50;;;21.10;35.20;;;;;;5043215;28;20128;-55
2023/04/18 00:45:40;;;;;;;3.15;2.50;;;21.10;35.10;;;;;;5031491;28;20068;-55
2023/04/18 00:48:06;;;;;;;2.58;2.10;;;21.10;35.10;;;;;;5050345;28;20029;-51
2023/04/18 00:50:32;;;;;;;3.38;2.33;;;21.10;35.00;;;;;;5048829;28;20043;-54
2023/04/18 00:52:58;;;;;;;3.80;2.40;;;21.20;35.00;;;;;;5052253;28;20021;-55
2023/04/18 00:55:24;;;;;;;3.38;2.67;;;21.10;34.90;;;;;;5054622;28;20448;-51
2023/04/18 00:57:51;;;;;;;3.25;2.65;;;21.10;34.80;;;;;;5052333;28;20041;-53
2023/04/18 01:00:17;;;;;;;2.90;2.25;;;21.20;34.90;;;;;;5044732;28;20029;-55
2023/04/18 01:02:42;;;;;;;3.13;2.30;;;21.10;34.70;;;;;;5052319;28;20463;-53
2023/04/18 01:05:09;;;;;;;3.15;2.53;;;21.10;34.70;;;;;;5047725;28;20383;-53
2023/04/18 01:07:39;;;;;;;3.13;2.40;;;21.10;34.70;;;;;;5049896;28;20039;-56
2023/04/18 01:10:06;;;;;;;3.63;2.35;;;21.10;35.30;;;;;;5048183;28;20080;-57
2023/04/18 01:12:32;;;;;;;3.35;2.72;;;21.10;34.60;;;;;;5051443;28;20025;-56
2023/04/18 01:14:59;;;;;;;3.58;2.58;;;21.10;34.60;;;;;;5051356;28;20024;-55
2023/04/18 01:17:28;;;;;;;3.72;2.90;;;21.10;34.60;;;;;;5049562;28;20036;-50
2023/04/18 01:19:55;;;;;;;4.22;2.58;;;21.20;34.60;;;;;;5047433;28;20032;-56
2023/04/18 01:22:21;;;;;;;3.95;2.63;;;21.10;34.50;;;;;;5049558;28;20045;-52
2023/04/18 01:24:47;;;;;;;3.42;2.70;;;21.10;34.40;;;;;;5054183;28;20028;-56
2023/04/18 01:27:15;;;;;;;3.85;2.72;;;21.10;34.40;;;;;;5051429;28;20047;-52
2023/04/18 01:29:41;;;;;;;4.10;2.40;;;21.10;34.30;;;;;;5050828;28;20470;-54
2023/04/18 01:32:07;;;;;;;3.42;2.70;;;21.10;34.30;;;;;;5047995;28;20032;-51
2023/04/18 01:34:33;;;;;;;3.50;2.63;;;21.10;34.30;;;;;;5049439;28;20029;-52
2023/04/18 01:36:59;;;;;;;4.35;2.80;;;21.10;34.20;;;;;;5051252;28;20021;-52
2023/04/18 01:39:24;;;;;;;3.30;2.40;;;21.10;34.20;;;;;;5051949;28;20033;-52
2023/04/18 01:41:51;;;;;;;3.97;2.95;;;21.10;34.10;;;;;;5048379;28;20094;-52
2023/04/18 01:44:17;;;;;;;3.55;2.50;;;21.10;34.10;;;;;;5030843;28;20036;-54
2023/04/18 01:46:44;;;;;;;3.25;2.58;;;21.10;34.10;;;;;;5048627;28;20083;-54
2023/04/18 01:49:10;;;;;;;3.35;2.60;;;21.10;34.00;;;;;;5049732;28;20028;-52
2023/04/18 01:51:37;;;;;;;3.53;2.40;;;21.10;34.00;;;;;;5056573;28;20456;-53
2023/04/18 01:54:04;;;;;;;3.05;2.55;;;21.10;34.00;;;;;;5077051;28;20115;-55
2023/04/18 01:56:29;;;;;;;3.38;2.70;;;21.10;34.00;;;;;;5048400;28;20116;-49
2023/04/18 01:58:57;;;;;;;3.83;2.55;;;21.10;34.00;;;;;;5049893;28;20072;-52
2023/04/18 02:01:23;;;;;;;3.90;2.70;;;21.10;34.00;;;;;;5049281;28;20428;-55
2023/04/18 02:03:49;;;;;;;3.47;2.28;;;21.10;33.90;;;;;;5051268;28;20120;-52
2023/04/18 02:06:15;;;;;;;3.72;2.47;;;21.10;33.90;;;;;;5051181;28;20021;-52
2023/04/18 02:08:41;;;;;;;3.95;2.50;;;21.10;33.90;;;;;;5046003;28;20053;-54
2023/04/18 02:11:06;;;;;;;4.28;2.83;;;21.00;33.80;;;;;;5046446;28;20044;-53
2023/04/18 02:13:32;;;;;;;3.55;2.42;;;21.10;33.80;;;;;;5032216;28;20063;-50
2023/04/18 02:15:58;;;;;;;2.90;2.22;;;21.00;33.80;;;;;;5051286;28;20040;-51
2023/04/18 02:18:25;;;;;;;4.20;2.70;;;21.00;33.70;;;;;;5047732;28;20052;-53
2023/04/18 02:20:51;;;;;;;3.80;2.80;;;21.00;33.70;;;;;;5063280;28;20457;-54
2023/04/18 02:23:17;;;;;;;4.07;2.40;;;21.10;33.70;;;;;;5047489;28;20051;-54
2023/04/18 02:25:43;;;;;;;3.15;2.35;;;21.00;33.60;;;;;;5051619;28;20025;-50
2023/04/18 02:28:09;;;;;;;3.47;2.70;;;21.00;33.60;;;;;;5048067;28;20586;-53
2023/04/18 02:30:35;;;;;;;3.45;2.83;;;21.00;33.60;;;;;;5050035;28;20037;-48
2023/04/18 02:33:01;;;;;;;3.38;2.55;;;21.00;33.60;;;;;;5049369;28;20112;-50
2023/04/18 02:35:27;;;;;;;3.65;2.50;;;21.00;33.50;;;;;;5049985;28;20115;-50
2023/04/18 02:37:53;;;;;;;3.65;2.55;;;21.00;33.60;;;;;;5050234;28;20055;-51
2023/04/18 02:40:19;;;;;;;3.75;2.42;;;21.00;33.60;;;;;;5051661;28;20515;-51
2023/04/18 02:42:45;;;;;;;4.47;2.55;;;21.00;33.60;;;;;;5048507;28;20040;-52
2023/04/18 02:45:14;;;;;;;3.45;2.60;;;21.00;33.50;;;;;;5047756;28;20143;-54
2023/04/18 02:47:40;;;;;;;3.38;2.70;;;21.00;33.50;;;;;;5048902;28;20104;-54
2023/04/18 02:50:06;;;;;;;4.07;2.85;;;21.00;33.50;;;;;;5048156;28;20024;-54
2023/04/18 02:52:33;;;;;;;4.03;2.30;;;21.00;33.50;;;;;;5047181;28;20051;-54
2023/04/18 02:55:00;;;;;;;2.97;2.45;;;21.00;33.50;;;;;;5046845;28;20067;-55
2023/04/18 02:57:30;;;;;;;4.30;3.10;;;21.00;33.50;;;;;;5044765;28;20017;-54
2023/04/18 03:00:20;;;;;;;3.17;2.40;;;21.00;33.50;;;;;;5045989;28;20495;-56
2023/04/18 03:03:10;;;;;;;3.72;2.50;;;21.00;33.50;;;;;;5047727;28;20387;-50
2023/04/18 03:05:47;;;;;;;6.13;2.63;;;21.00;33.50;;;;;;5047353;28;20028;-51
2023/04/18 03:08:13;;;;;;;3.40;2.63;;;21.00;33.50;;;;;;5048115;28;20402;-54
2023/04/18 03:10:41;;;;;;;3.90;2.67;;;21.00;33.50;;;;;;5045984;28;20116;-53
2023/04/18 03:13:07;;;;;;;3.67;2.50;;;21.00;33.40;;;;;;5048625;28;20036;-58
2023/04/18 03:15:33;;;;;;;3.45;2.30;;;20.90;33.40;;;;;;5047556;28;20025;-55
2023/04/18 03:17:59;;;;;;;4.05;2.88;;;21.00;33.40;;;;;;5047026;28;20045;-55
2023/04/18 03:20:29;;;;;;;3.40;2.47;;;21.00;33.40;;;;;;5045811;28;20021;-53
2023/04/18 03:22:55;;;;;;;3.45;2.60;;;20.90;33.40;;;;;;5047820;28;20121;-56
2023/04/18 03:25:24;;;;;;;3.45;2.67;;;20.90;33.40;;;;;;5045908;28;20026;-52
2023/04/18 03:27:51;;;;;;;3.67;2.55;;;20.90;33.40;;;;;;5046699;28;20021;-53
2023/04/18 03:30:20;;;;;;;3.28;2.60;;;20.90;33.40;;;;;;5044925;28;20369;-52
2023/04/18 03:32:54;;;;;;;3.35;2.47;;;20.90;33.30;;;;;;5047331;28;20052;-54
2023/04/18 03:35:20;;;;;;;4.28;2.67;;;20.90;33.30;;;;;;5031970;28;20601;-53
2023/04/18 03:37:46;;;;;;;4.22;2.65;;;20.90;33.30;;;;;;5046190;28;20424;-52
2023/04/18 03:40:19;;;;;;;3.97;3.28;;;20.90;33.30;;;;;;5045965;28;20036;-51
2023/04/18 03:42:47;;;;;;;3.67;2.65;;;20.90;33.30;;;;;;5046548;28;20052;-52
2023/04/18 03:45:15;;;;;;;3.80;2.53;;;20.90;33.30;;;;;;5049337;28;20141;-51
2023/04/18 03:47:43;;;;;;;3.05;2.40;;;20.90;33.30;;;;;;5045069;28;20025;-51
2023/04/18 03:50:09;;;;;;;4.38;2.67;;;20.90;33.30;;;;;;5048387;28;20045;-52
2023/04/18 03:52:36;;;;;;;5.47;3.15;;;20.90;33.30;;;;;;5030183;28;20028;-55
2023/04/18 03:55:03;;;;;;;2.67;2.03;;;20.90;33.30;;;;;;5047893;28;20033;-55
2023/04/18 03:57:32;;;;;;;4.25;2.30;;;20.90;33.30;;;;;;5048433;28;20018;-49
2023/04/18 03:59:59;;;;;;;2.85;2.30;;;20.90;33.30;;;;;;5048308;28;20445;-53
2023/04/18 04:02:26;;;;;;;3.80;3.00;;;20.90;33.30;;;;;;5047305;28;20447;-52
2023/04/18 04:04:52;;;;;;;3.28;2.35;;;20.80;33.30;;;;;;5049253;28;20067;-55
2023/04/18 04:07:18;;;;;;;3.22;2.30;;;20.90;33.30;;;;;;5048868;28;20380;-52
2023/04/18 04:09:44;;;;;;;3.85;2.58;;;20.90;33.30;;;;;;5051054;28;20032;-53
2023/04/18 04:12:10;;;;;;;4.05;2.75;;;20.80;33.20;;;;;;5047398;28;20029;-51
2023/04/18 04:14:36;;;;;;;3.78;2.42;;;20.90;33.30;;;;;;5049199;28;20044;-54
2023/04/18 04:17:02;;;;;;;3.45;2.67;;;20.80;33.30;;;;;;5043062;28;20258;-54
2023/04/18 04:19:29;;;;;;;3.13;2.50;;;20.90;33.30;;;;;;5033933;28;20032;-53
2023/04/18 04:22:07;;;;;;;2.85;2.50;;;20.80;33.30;;;;;;5046731;28;20075;-51
2023/04/18 04:24:37;;;;;;;3.10;2.40;;;20.80;33.30;;;;;;5049507;28;20040;-52
2023/04/18 04:27:04;;;;;;;3.70;2.47;;;20.80;33.30;;;;;;5050771;28;20068;-55
2023/04/18 04:29:30;;;;;;;4.85;2.65;;;20.80;33.30;;;;;;5052790;28;20349;-53
2023/04/18 04:31:58;;;;;;;3.78;2.42;;;20.80;33.40;;;;;;5051475;28;20080;-52
2023/04/18 04:34:30;;;;;;;3.13;2.60;;;20.80;33.40;;;;;;5051798;28;20040;-55
2023/04/18 04:36:56;;;;;;;3.88;2.80;;;20.80;33.40;;;;;;5047090;28;20025;-53
2023/04/18 04:39:25;;;;;;;3.72;2.70;;;20.80;33.40;;;;;;5050926;28;20060;-55
2023/04/18 04:42:04;;;;;;;3.55;2.35;;;20.80;33.40;;;;;;5049221;28;20037;-56
2023/04/18 04:44:40;;;;;;;3.28;2.45;;;20.80;33.40;;;;;;5048436;28;20052;-55
2023/04/18 04:47:06;;;;;;;3.65;2.67;;;20.80;33.50;;;;;;5052191;28;20032;-51
2023/04/18 04:49:35;;;;;;;4.15;2.95;;;20.80;33.50;;;;;;5050584;28;20041;-55
2023/04/18 04:52:04;;;;;;;3.17;2.40;;;20.80;33.50;;;;;;5048704;28;20059;-52
2023/04/18 04:54:30;;;;;;;2.83;2.33;;;20.80;33.50;;;;;;5048022;28;20044;-54
2023/04/18 04:56:56;;;;;;;5.63;2.67;;;20.70;33.40;;;;;;5053857;28;20155;-53
2023/04/18 04:59:22;;;;;;;4.20;3.13;;;20.80;33.50;;;;;;5060152;28;20090;-51
2023/04/18 05:01:48;;;;;;;2.97;2.67;;;20.80;33.50;;;;;;5051550;28;20033;-54
2023/04/18 05:04:14;;;;;;;3.53;2.70;;;20.70;33.50;;;;;;5052257;28;20043;-55
2023/04/18 05:06:40;;;;;;;4.00;2.95;;;20.80;33.50;;;;;;5051756;28;20104;-57
2023/04/18 05:09:06;;;;;;;3.63;2.72;;;20.70;33.50;;;;;;5051229;28;20116;-54
2023/04/18 05:11:31;;;;;;;3.05;2.53;;;20.70;33.50;;;;;;5053043;28;20021;-53
2023/04/18 05:13:58;;;;;;;3.50;2.63;;;20.80;33.60;;;;;;5045326;28;20033;-52
2023/04/18 05:16:25;;;;;;;3.53;2.65;;;20.70;33.50;;;;;;5050956;28;20048;-56
2023/04/18 05:18:50;;;;;;;4.32;2.53;;;20.70;33.60;;;;;;5050616;28;20041;-52
2023/04/18 05:21:16;;;;;;;2.67;2.28;;;20.80;33.60;;;;;;5050861;28;20594;-51
2023/04/18 05:23:42;;;;;;;4.22;2.60;;;20.70;33.60;;;;;;5050416;28;20029;-54
2023/04/18 05:26:08;;;;;;;3.88;3.00;;;20.80;33.60;;;;;;5050054;28;20032;-52
2023/04/18 05:28:34;;;;;;;2.97;2.10;;;20.80;33.60;;;;;;5050656;28;20033;-56
2023/04/18 05:31:00;;;;;;;3.08;2.50;;;20.80;33.60;;;;;;5050634;28;20029;-52
2023/04/18 05:33:28;;;;;;;4.13;2.50;;;20.70;33.60;;;;;;5050441;28;20044;-50
2023/04/18 05:35:54;;;;;;;2.92;2.30;;;20.70;33.60;;;;;;5049711;28;20025;-53
2023/04/18 05:38:20;;;;;;;3.88;2.78;;;20.80;33.70;;;;;;5051864;28;20032;-52
2023/04/18 05:40:46;;;;;;;3.15;2.50;;;20.70;33.70;;;;;;5051881;28;20047;-54
2023/04/18 05:43:12;;;;;;;3.13;2.25;;;20.70;33.70;;;;;;5052292;28;20025;-54
2023/04/18 05:45:38;;;;;;;5.25;2.60;;;20.70;33.70;;;;;;5054387;28;20041;-52
2023/04/18 05:48:04;;;;;;;3.85;2.22;;;20.70;33.70;;;;;;5048434;28;20025;-54
2023/04/18 05:50:29;;;;;;;3.55;2.67;;;20.70;33.70;;;;;;5052930;28;20032;-54
2023/04/18 05:52:58;;;;;;;3.17;2.38;;;20.70;33.80;;;;;;5051027;28;20112;-51
2023/04/18 05:55:24;;;;;;;2.95;2.45;;;20.70;33.80;;;;;;5049549;28;20060;-50
2023/04/18 05:57:50;;;;;;;3.40;2.25;;;20.80;33.90;;;;;;5051256;28;20025;-55
2023/04/18 06:00:16;;;;;;;5.00;2.67;;;20.80;33.90;;;;;;5048360;28;20017;-56
2023/04/18 06:02:42;;;;;;;3.13;2.45;;;20.70;33.90;;;;;;5048654;28;20046;-51
2023/04/18 06:05:08;;;;;;;3.55;2.50;;;20.70;34.00;;;;;;5049063;28;20025;-54
2023/04/18 06:07:35;;;;;;;3.78;2.70;;;20.70;34.00;;;;;;5047431;28;20028;-48
2023/04/18 06:10:00;;;;;;;3.65;2.30;;;20.80;34.10;;;;;;5042153;28;20127;-54
2023/04/18 06:12:26;;;;;;;2.95;2.13;;;20.70;34.10;;;;;;5042317;28;20025;-55
2023/04/18 06:14:52;;;;;;;3.42;2.33;;;20.80;34.30;;;;;;5039844;28;20432;-49
2023/04/18 06:17:18;;;;;;;2.72;2.22;;;20.70;34.20;;;;;;5046378;28;20036;-52
2023/04/18 06:19:44;;;;;;;4.63;2.53;;;20.70;34.20;;;;;;5046293;28;20586;-54
2023/04/18 06:22:09;;;;;;;3.25;2.20;;;20.80;34.20;;;;;;5045198;28;20041;-50
2023/04/18 06:24:36;;;;;;;3.30;2.40;;;20.80;34.20;;;;;;5045378;28;20049;-53
2023/04/18 06:27:02;;;;;;;2.67;1.85;;;20.80;34.20;;;;;;5044278;28;20530;-53
2023/04/18 06:29:31;;;;;;;3.50;2.45;;;20.80;34.20;;;;;;5038645;28;20036;-53
2023/04/18 06:31:58;;;;;;;3.38;2.33;;;20.80;34.20;;;;;;5044798;28;20044;-53
2023/04/18 06:34:24;;;;;;;3.10;2.47;;;20.80;34.10;;;;;;5046371;28;20040;-54
2023/04/18 06:36:50;;;;;;;3.55;2.60;;;20.90;34.20;;;;;;5033662;28;20025;-54
2023/04/18 06:39:16;;;;;;;3.13;2.10;;;20.90;34.20;;;;;;5036642;28;20056;-55
2023/04/18 06:41:42;;;;;;;3.60;2.60;;;21.00;34.10;;;;;;5037739;28;20036;-52
2023/04/18 06:44:08;;;;;;;3.58;2.58;;;21.00;34.10;;;;;;5043540;28;20025;-55
2023/04/18 06:46:34;;;;;;;3.30;2.55;;;21.10;34.10;;;;;;5046174;28;20062;-55
2023/04/18 06:49:01;;;;;;;3.45;2.47;;;21.20;34.10;;;;;;5032813;28;20156;-56
2023/04/18 06:51:28;;;;;;;3.38;2.72;;;21.20;34.10;;;;;;5055002;28;20041;-54
2023/04/18 06:53:55;;;;;;;4.03;3.10;;;21.20;34.10;;;;;;5035822;28;20060;-52
2023/04/18 06:56:21;;;;;;;3.35;2.53;;;21.30;34.00;;;;;;5040695;28;20357;-51
2023/04/18 06:58:51;;;;;;;5.47;3.13;;;21.40;34.00;;;;;;5039985;28;20400;-54
2023/04/18 07:01:18;;;;;;;3.92;3.05;;;21.40;33.90;;;;;;5073246;28;20113;-53
2023/04/18 07:03:45;;;;;;;3.80;3.13;;;21.50;33.90;;;;;;5073632;28;20513;-52
2023/04/18 07:06:12;;;;;;;3.70;2.83;;;21.60;33.90;;;;;;5073104;28;20109;-50
2023/04/18 07:08:38;;;;;;;4.05;3.10;;;21.60;33.80;;;;;;5071213;28;20068;-54
2023/04/18 07:11:05;;;;;;;3.40;2.60;;;21.70;33.80;;;;;;5052624;28;20029;-54
2023/04/18 07:13:32;;;;;;;4.03;2.90;;;21.80;33.70;;;;;;5053778;28;20052;-55
2023/04/18 07:15:59;;;;;;;4.35;3.17;;;21.80;33.60;;;;;;5044218;28;20514;-55
2023/04/18 07:18:26;;;;;;;4.50;3.40;;;21.90;33.60;;;;;;5053329;28;20051;-53
2023/04/18 07:20:53;;;;;;;4.60;3.78;;;22.00;33.60;;;;;;5070278;28;20032;-55
2023/04/18 07:23:19;;;;;;;4.70;3.75;;;22.00;33.60;;;;;;5052774;28;20501;-55
2023/04/18 07:25:45;;;;;;;5.35;4.22;;;22.00;33.50;;;;;;5054854;28;20487;-53
2023/04/18 07:28:11;;;;;;;5.95;4.88;;;22.10;33.60;;;;;;5052863;28;20033;-55
2023/04/18 07:30:37;;;;;;;6.10;4.88;;;22.10;34.20;;;;;;5052397;28;20033;-57
2023/04/18 07:33:03;;;;;;;6.65;5.60;;;22.20;33.60;;;;;;5042132;28;20079;-52
2023/04/18 07:35:29;;;;;;;6.82;5.60;;;22.20;33.60;;;;;;5035867;28;20037;-53
2023/04/18 07:37:55;;;;;;;6.70;6.00;;;22.30;33.60;;;;;;5043131;28;20338;-55
2023/04/18 07:40:21;;;;;;;7.63;6.82;;;22.30;33.70;;;;;;5040573;28;20091;-53
2023/04/18 07:42:46;;;;;;;8.57;7.40;;;22.30;33.70;;;;;;5040526;28;20025;-54
2023/04/18 07:45:14;;;;;;;8.32;7.35;;;22.30;33.70;;;;;;5046020;28;20041;-50
2023/04/18 07:47:40;;;;;;;9.77;8.25;;;22.30;33.70;;;;;;5046352;28;20036;-52
2023/04/18 07:50:07;;;;;;;10.00;8.48;;;22.30;33.80;;;;;;5042371;28;20576;-51
2023/04/18 07:52:33;;;;;;;10.40;8.68;;;22.30;33.90;;;;;;5042930;28;20068;-53
2023/04/18 07:54:59;;;;;;;9.68;8.68;;;22.40;34.00;;;;;;5040856;28;20025;-55
2023/04/18 07:57:25;;;;;;;10.48;9.27;;;22.40;34.00;;;;;;5039313;28;20079;-54
2023/04/18 07:59:52;;;;;;;11.38;9.63;;;22.40;34.00;;;;;;5054897;28;20044;-50
2023/04/18 08:02:19;;;;;;;11.85;9.70;;;22.40;34.00;;;;;;5056595;28;20044;-52
2023/04/18 08:04:45;;;;;;;11.68;9.32;;;22.30;34.00;;;;;;5046182;28;20024;-53
2023/04/18 08:07:11;;;;;;;10.05;8.70;;;22.40;34.00;;;;;;5056701;28;20039;-56
2023/04/18 08:09:37;;;;;;;10.68;8.55;;;22.40;34.10;;;;;;5053458;28;20100;-50
2023/04/18 08:12:03;;;;;;;9.68;7.88;;;22.40;34.00;;;;;;5057125;28;20017;-51
2023/04/18 08:14:29;;;;;;;8.85;7.57;;;22.30;33.90;;;;;;5054357;28;20109;-53
2023/04/18 08:16:55;;;;;;;9.18;7.63;;;22.30;33.90;;;;;;5057695;28;20035;-53
2023/04/18 08:19:22;;;;;;;7.88;6.60;;;22.40;33.80;;;;;;5056608;28;20120;-52
2023/04/18 08:21:50;;;;;;;8.48;6.63;;;22.40;33.80;;;;;;5054656;28;20040;-54
2023/04/18 08:24:16;;;;;;;7.90;6.70;;;22.30;33.60;;;;;;5055837;28;20033;-55
2023/04/18 08:26:41;;;;;;;7.32;6.07;;;22.30;33.60;;;;;;5056407;28;20025;-54
2023/04/18 08:29:07;;;;;;;6.18;5.57;;;22.30;33.50;;;;;;5056518;28;20025;-54
2023/04/18 08:31:33;;;;;;;6.78;5.88;;;22.30;33.50;;;;;;5054366;28;20048;-51
2023/04/18 08:33:59;;;;;;;7.15;6.45;;;22.30;33.50;;;;;;5055778;28;20040;-53
2023/04/18 08:36:25;;;;;;;6.93;5.82;;;22.30;33.40;;;;;;5054933;28;20395;-55
2023/04/18 08:38:51;;;;;;;7.35;5.90;;;22.30;33.40;;;;;;5055794;28;20163;-53
2023/04/18 08:41:21;;;;;;;6.85;5.40;;;22.30;33.30;;;;;;5055599;28;20467;-54
2023/04/18 08:43:47;;;;;;;6.47;4.93;;;22.30;33.30;;;;;;5055516;28;20021;-57
2023/04/18 08:46:13;;;;;;;6.10;4.82;;;22.20;33.30;;;;;;5054300;28;20049;-51
2023/04/18 08:48:40;;;;;;;6.30;4.75;;;22.20;33.20;;;;;;5055872;28;20486;-52
2023/04/18 08:51:05;;;;;;;6.20;4.70;;;22.30;33.30;;;;;;5056107;28;20448;-53
2023/04/18 08:53:33;;;;;;;6.38;4.70;;;22.20;33.20;;;;;;5055632;28;20102;-53
2023/04/18 08:56:00;;;;;;;4.60;4.00;;;22.30;33.30;;;;;;5053775;28;20033;-55
2023/04/18 08:58:26;;;;;;;5.47;4.30;;;22.20;33.20;;;;;;5055616;28;20049;-53
2023/04/18 09:00:53;;;;;;;5.43;4.10;;;22.20;33.20;;;;;;5057262;28;20448;-52
2023/04/18 09:03:36;;;;;;;5.85;4.72;;;22.20;33.20;;;;;;5054708;28;20039;-49
2023/04/18 09:06:08;;;;;;;6.72;3.95;;;22.20;33.20;;;;;;5055303;28;20035;-52
2023/04/18 09:08:34;;;;;;;4.82;3.88;;;22.20;33.20;;;;;;5055168;28;20051;-51
2023/04/18 09:11:24;;;;;;;5.78;3.88;;;22.20;33.20;;;;;;5055640;28;20437;-51
2023/04/18 09:13:51;;;;;;;4.35;3.60;;;22.20;33.20;;;;;;5052369;28;20035;-53
2023/04/18 09:16:19;;;;;;;4.50;3.67;;;22.20;33.20;;;;;;5054393;28;20025;-51
2023/04/18 09:19:17;;;;;;;4.45;3.55;;;22.10;33.20;;;;;;5054910;28;20455;-52
2023/04/18 09:21:47;;;;;;;5.40;4.55;;;22.10;33.20;;;;;;5054159;28;20033;-54
2023/04/18 09:24:19;;;;;;;8.45;7.07;;;22.10;33.20;;;;;;5055304;28;20064;-56
2023/04/18 09:26:48;;;;;;;8.63;7.38;;;22.10;33.40;;;;;;5054073;28;20039;-54
2023/04/18 09:29:16;;;;;;;9.55;6.88;;;22.10;33.50;;;;;;5054053;28;20487;-56
2023/04/18 09:32:00;;;;;;;9.38;7.65;;;22.10;33.60;;;;;;5053902;28;20027;-56
2023/04/18 09:34:27;;;;;;;12.02;10.00;;;22.10;33.70;;;;;;5052548;28;20047;-55
2023/04/18 09:37:10;;;;;;;15.20;12.93;;;22.10;33.90;;;;;;5056820;28;20340;-52
2023/04/18 09:39:41;;;;;;;18.45;16.13;;;22.10;34.10;;;;;;5053947;28;20040;-54
2023/04/18 09:42:09;;;;;;;20.17;16.35;;;22.10;34.30;;;;;;5053046;28;20026;-52
2023/04/18 09:44:35;;;;;;;20.63;18.25;;;22.10;34.50;;;;;;5054644;28;20048;-51
2023/04/18 09:47:01;;;;;;;25.35;20.38;;;22.10;34.70;;;;;;5053389;28;20114;-53
2023/04/18 09:49:27;;;;;;;23.55;18.60;;;22.10;34.80;;;;;;5053226;28;20108;-53
2023/04/18 09:51:54;;;;;;;23.50;20.40;;;22.10;35.00;;;;;;5053097;28;20040;-52
2023/04/18 09:54:23;;;;;;;24.25;20.25;;;22.10;35.10;;;;;;5054503;28;20079;-51
2023/04/18 09:56:52;;;;;;;22.90;18.90;;;22.10;35.20;;;;;;5046063;28;20108;-52
2023/04/18 09:59:50;;;;;;;21.63;17.23;;;22.10;35.20;;;;;;5049441;28;20056;-50
2023/04/18 10:02:21;;;;;;;20.25;16.45;;;22.10;35.00;;;;;;5047678;28;20360;-54
2023/04/18 10:04:50;;;;;;;19.23;15.05;;;22.10;34.90;;;;;;5057011;28;20083;-46
2023/04/18 10:07:16;;;;;;;20.55;17.30;;;22.10;34.80;;;;;;5053535;28;20032;-47
2023/04/18 10:09:44;;;;;;;19.35;16.15;;;22.10;34.80;;;;;;5054622;28;20044;-50
2023/04/18 10:12:11;;;;;;;19.15;15.63;;;22.10;34.90;;;;;;5050736;28;20033;-54
2023/04/18 10:14:41;;;;;;;17.73;15.00;;;22.10;35.60;;;;;;5050184;28;20044;-51
2023/04/18 10:17:09;;;;;;;19.20;15.35;;;22.10;34.90;;;;;;5048845;28;20044;-53
2023/04/18 10:19:36;;;;;;;17.33;14.80;;;22.10;34.90;;;;;;5038341;28;20075;-55
2023/04/18 10:22:02;;;;;;;16.55;13.25;;;22.10;34.80;;;;;;5029933;28;20037;-54
2023/04/18 10:24:47;;;;;;;14.00;11.90;;;22.10;34.70;;;;;;5028516;28;20028;-55
2023/04/18 10:27:14;;;;;;;13.93;11.82;;;22.10;34.70;;;;;;5035768;28;20037;-47
2023/04/18 10:29:50;;;;;;;12.18;10.02;;;22.10;34.80;;;;;;5034075;28;20041;-54
2023/04/18 10:32:18;;;;;;;11.88;9.95;;;22.20;34.80;;;;;;5057169;28;20044;-53
2023/04/18 10:34:46;;;;;;;16.83;14.35;;;22.20;34.70;;;;;;5053216;28;20048;-51
2023/04/18 10:37:14;;;;;;;23.23;18.67;;;22.20;34.80;;;;;;5053958;28;20025;-53
2023/04/18 10:39:57;;;;;;;26.42;21.45;;;22.20;35.10;;;;;;5051198;28;20045;-50
2023/04/18 10:42:45;;;;;;;30.15;24.65;;;22.20;35.40;;;;;;5052492;28;20400;-50
2023/04/18 10:45:21;;;;;;;30.38;24.65;;;22.20;35.60;;;;;;5053634;28;20041;-50
2023/04/18 10:47:48;;;;;;;31.55;24.92;;;22.20;35.80;;;;;;5052140;28;20052;-50
2023/04/18 10:50:14;;;;;;;29.25;24.83;;;22.20;35.90;;;;;;5049601;28;20052;-51
2023/04/18 10:52:41;;;;;;;27.30;22.40;;;22.20;35.90;;;;;;5052490;28;20063;-50
2023/04/18 10:55:27;;;;;;;25.70;22.67;;;22.30;36.00;;;;;;5052760;28;20049;-50
2023/04/18 10:57:57;;;;;;;24.63;20.50;;;22.20;35.90;;;;;;5047577;28;20057;-48
2023/04/18 11:00:23;;;;;;;24.08;19.88;;;22.30;36.00;;;;;;5050931;28;20036;-50
2023/04/18 11:02:58;;;;;;;20.13;17.48;;;22.20;35.90;;;;;;5050564;28;20044;-56
2023/04/18 11:05:28;;;;;;;17.33;14.13;;;22.20;35.80;;;;;;5045600;28;20046;-54
2023/04/18 11:07:54;;;;;;;17.02;14.00;;;22.20;35.70;;;;;;5043415;28;20029;-55
2023/04/18 11:10:25;;;;;;;13.35;11.68;;;22.30;35.60;;;;;;5044526;28;20506;-55
2023/04/18 11:12:53;;;;;;;13.60;11.30;;;22.30;35.50;;;;;;5051824;28;20025;-51
2023/04/18 11:15:22;;;;;;;12.38;9.57;;;22.40;35.40;;;;;;5048854;28;20037;-55
2023/04/18 11:18:02;;;;;;;11.43;9.27;;;22.50;35.20;;;;;;5048304;28;20103;-53
2023/04/18 11:20:36;;;;;;;10.00;8.30;;;22.60;35.10;;;;;;5049253;28;20048;-55
2023/04/18 11:23:03;;;;;;;11.38;8.30;;;22.70;35.00;;;;;;5050370;28;20029;-49
2023/04/18 11:25:33;;;;;;;10.10;8.25;;;22.80;34.90;;;;;;5049736;28;20036;-52
2023/04/18 11:28:01;;;;;;;9.73;7.82;;;22.90;34.80;;;;;;5048156;28;20067;-52
2023/04/18 11:30:34;;;;;;;8.68;7.20;;;22.90;34.60;;;;;;5060072;28;20081;-52
2023/04/18 11:33:07;;;;;;;9.25;7.60;;;23.00;34.50;;;;;;5051886;28;20448;-54
2023/04/18 11:35:38;;;;;;;8.30;6.25;;;23.10;34.40;;;;;;5053128;28;20029;-53
2023/04/18 11:38:05;;;;;;;8.27;6.60;;;23.10;34.30;;;;;;5050759;28;20118;-53
2023/04/18 11:40:31;;;;;;;6.40;5.68;;;23.20;34.10;;;;;;5041688;28;20333;-52
2023/04/18 11:43:01;;;;;;;7.05;5.28;;;23.30;34.10;;;;;;5051964;28;20021;-50
2023/04/18 11:45:27;;;;;;;6.70;5.60;;;23.30;34.00;;;;;;5052274;28;20059;-54
2023/04/18 11:47:58;;;;;;;6.25;5.30;;;23.40;34.00;;;;;;5053003;28;20057;-54
2023/04/18 11:50:24;;;;;;;5.75;4.82;;;23.40;33.90;;;;;;5047357;28;20035;-50
2023/04/18 11:52:52;;;;;;;5.63;4.30;;;23.50;33.90;;;;;;5052511;28;20104;-53
2023/04/18 11:55:23;;;;;;;5.38;4.45;;;23.50;33.80;;;;;;5043208;28;20475;-54
2023/04/18 11:57:53;;;;;;;4.82;3.70;;;23.60;33.80;;;;;;5062328;28;20025;-49
2023/04/18 12:00:37;;;;;;;4.18;3.65;;;23.60;33.60;;;;;;5049054;28;20041;-54
2023/04/18 12:03:14;;;;;;;4.25;3.85;;;23.70;34.20;;;;;;5045044;28;20029;-51
2023/04/18 12:05:44;;;;;;;4.90;3.25;;;23.70;33.60;;;;;;5042451;28;20025;-51
2023/04/18 12:08:17;;;;;;;3.78;2.90;;;23.70;33.60;;;;;;5041779;28;20368;-51
2023/04/18 12:10:51;;;;;;;3.47;2.92;;;23.80;33.50;;;;;;5036829;28;20162;-52
2023/04/18 12:13:18;;;;;;;4.13;3.20;;;23.80;33.50;;;;;;5045155;28;20122;-51
2023/04/18 12:15:45;;;;;;;2.90;2.60;;;23.80;33.40;;;;;;5043784;28;20299;-51
2023/04/18 12:18:14;;;;;;;3.58;2.78;;;23.90;33.40;;;;;;5041933;28;20102;-54
2023/04/18 12:20:44;;;;;;;3.45;2.75;;;23.90;32.90;;;;;;5038991;28;20037;-56
2023/04/18 12:23:34;;;;;;;2.58;2.10;;;24.00;33.40;;;;;;5044204;28;20476;-52
2023/04/18 12:26:05;;;;;;;2.97;2.55;;;24.00;33.30;;;;;;5046522;28;20029;-53
2023/04/18 12:28:33;;;;;;;4.75;2.75;;;24.00;33.20;;;;;;5039577;28;20345;-53
2023/04/18 12:30:59;;;;;;;3.10;2.50;;;24.00;33.20;;;;;;5043246;28;20017;-56
2023/04/18 12:33:27;;;;;;;3.10;2.70;;;24.10;33.20;;;;;;5045542;28;20095;-57
2023/04/18 12:35:53;;;;;;;3.30;2.47;;;24.10;33.20;;;;;;5040372;28;20031;-51
2023/04/18 12:38:23;;;;;;;4.45;2.75;;;24.10;33.30;;;;;;5042887;28;20112;-53
2023/04/18 12:40:50;;;;;;;4.82;2.88;;;24.10;33.40;;;;;;5042289;28;20033;-52
2023/04/18 12:43:19;;;;;;;3.60;2.78;;;24.20;33.40;;;;;;5054539;28;20100;-57
2023/04/18 12:45:46;;;;;;;3.45;2.60;;;24.20;33.40;;;;;;5055553;28;20052;-52
2023/04/18 12:48:12;;;;;;;5.50;2.85;;;24.20;33.40;;;;;;5048265;28;20102;-52